sensor_id;sensor_type;location;lat;lon;timestamp;pressure;altitude;pressure_sealevel;temperature;humidity
20444;BME280;10381;53.730;10.010;2022-09-09T00:00:26;100492.47;;;13.28;100.00
20444;BME280;10381;53.730;10.010;2022-09-09T00:04:28;100487.25;;;13.26;100.00
20444;BME280;10381;53.730;10.010;2022-09-09T00:09:04;100489.94;;;13.26;100.00
20444;BME280;10381;53.730;10.010;2022-09-09T00:13:32;100493.78;;;13.32;100.00
20444;BME280;10381;53.730;10.010;2022-09-09T00:17:39;100491.47;;;13.29;100.00
20444;BME280;10381;53.730;10.010;2022-09-09T00:22:01;100493.28;;;13.28;100.00
20444;BME280;10381;53.730;10.010;2022-09-09T00:26:09;100482.66;;;13.28;100.00
20444;BME280;10381;53.730;10.010;2022-09-09T00:30:34;100476.31;;;13.29;100.00
20444;BME280;10381;53.730;10.010;2022-09-09T00:34:36;100481.31;;;13.32;100.00
20444;BME280;10381;53.730;10.010;2022-09-09T00:38:43;100488.19;;;13.35;100.00
20444;BME280;10381;53.730;10.010;2022-09-09T00:42:45;100479.19;;;13.36;100.00
20444;BME280;10381;53.730;10.010;2022-09-09T00:47:12;100473.38;;;13.40;100.00
20444;BME280;10381;53.730;10.010;2022-09-09T00:56:19;100473.72;;;13.46;100.00
20444;BME280;10381;53.730;10.010;2022-09-09T01:00:27;100469.22;;;13.46;100.00
20444;BME280;10381;53.730;10.010;2022-09-09T01:04:33;100475.84;;;13.42;100.00
20444;BME280;10381;53.730;10.010;2022-09-09T01:13:15;100472.72;;;13.38;100.00
20444;BME280;10381;53.730;10.010;2022-09-09T01:17:20;100478.66;;;13.32;100.00
20444;BME280;10381;53.730;10.010;2022-09-09T01:21:43;100470.84;;;13.31;100.00
20444;BME280;10381;53.730;10.010;2022-09-09T01:26:18;100474.69;;;13.36;100.00
20444;BME280;10381;53.730;10.010;2022-09-09T01:30:20;100468.88;;;13.33;100.00
20444;BME280;10381;53.730;10.010;2022-09-09T01:34:23;100469.38;;;13.36;100.00
20444;BME280;10381;53.730;10.010;2022-09-09T01:38:24;100466.56;;;13.38;100.00
20444;BME280;10381;53.730;10.010;2022-09-09T01:42:25;100471.88;;;13.38;100.00
20444;BME280;10381;53.730;10.010;2022-09-09T01:46:26;100469.03;;;13.39;100.00
20444;BME280;10381;53.730;10.010;2022-09-09T01:50:28;100476.19;;;13.39;100.00
20444;BME280;10381;53.730;10.010;2022-09-09T01:54:31;100470.88;;;13.39;100.00
20444;BME280;10381;53.730;10.010;2022-09-09T01:59:14;100470.25;;;13.45;100.00
20444;BME280;10381;53.730;10.010;2022-09-09T02:11:37;100453.75;;;13.41;100.00
20444;BME280;10381;53.730;10.010;2022-09-09T02:19:54;100463.22;;;13.36;100.00
20444;BME280;10381;53.730;10.010;2022-09-09T02:24:00;100468.38;;;13.37;100.00
20444;BME280;10381;53.730;10.010;2022-09-09T02:28:06;100465.19;;;13.34;100.00
20444;BME280;10381;53.730;10.010;2022-09-09T02:32:16;100458.03;;;13.34;100.00
20444;BME280;10381;53.730;10.010;2022-09-09T02:36:18;100461.72;;;13.33;100.00
20444;BME280;10381;53.730;10.010;2022-09-09T02:40:20;100464.38;;;13.33;100.00
20444;BME280;10381;53.730;10.010;2022-09-09T02:44:21;100458.81;;;13.27;100.00
20444;BME280;10381;53.730;10.010;2022-09-09T02:48:49;100454.66;;;13.24;100.00
20444;BME280;10381;53.730;10.010;2022-09-09T02:53:00;100456.97;;;13.19;100.00
20444;BME280;10381;53.730;10.010;2022-09-09T02:57:16;100463.66;;;13.23;100.00
20444;BME280;10381;53.730;10.010;2022-09-09T03:01:17;100461.63;;;13.17;100.00
20444;BME280;10381;53.730;10.010;2022-09-09T03:05:17;100466.78;;;13.18;100.00
20444;BME280;10381;53.730;10.010;2022-09-09T03:09:18;100459.28;;;13.14;100.00
20444;BME280;10381;53.730;10.010;2022-09-09T03:13:18;100457.72;;;13.03;100.00
20444;BME280;10381;53.730;10.010;2022-09-09T03:17:19;100460.22;;;12.96;100.00
20444;BME280;10381;53.730;10.010;2022-09-09T03:21:19;100450.41;;;12.97;100.00
20444;BME280;10381;53.730;10.010;2022-09-09T03:25:20;100449.38;;;12.90;100.00
20444;BME280;10381;53.730;10.010;2022-09-09T03:29:21;100451.22;;;12.89;100.00
20444;BME280;10381;53.730;10.010;2022-09-09T03:33:21;100454.03;;;12.88;100.00
20444;BME280;10381;53.730;10.010;2022-09-09T03:37:21;100467.47;;;12.86;100.00
20444;BME280;10381;53.730;10.010;2022-09-09T03:41:23;100457.66;;;12.87;100.00
20444;BME280;10381;53.730;10.010;2022-09-09T03:45:23;100452.66;;;12.84;100.00
20444;BME280;10381;53.730;10.010;2022-09-09T03:49:24;100465.81;;;12.85;100.00
20444;BME280;10381;53.730;10.010;2022-09-09T03:53:26;100466.13;;;12.82;100.00
20444;BME280;10381;53.730;10.010;2022-09-09T03:57:26;100460.81;;;12.82;100.00
20444;BME280;10381;53.730;10.010;2022-09-09T04:01:27;100468.56;;;12.75;100.00
20444;BME280;10381;53.730;10.010;2022-09-09T04:05:27;100467.56;;;12.76;100.00
20444;BME280;10381;53.730;10.010;2022-09-09T04:09:28;100466.25;;;12.72;100.00
20444;BME280;10381;53.730;10.010;2022-09-09T04:13:28;100472.78;;;12.60;100.00
20444;BME280;10381;53.730;10.010;2022-09-09T04:17:28;100468.53;;;12.41;100.00
20444;BME280;10381;53.730;10.010;2022-09-09T04:21:29;100481.50;;;12.44;100.00
20444;BME280;10381;53.730;10.010;2022-09-09T04:25:30;100476.41;;;12.51;100.00
20444;BME280;10381;53.730;10.010;2022-09-09T04:29:30;100486.72;;;12.54;100.00
20444;BME280;10381;53.730;10.010;2022-09-09T04:33:30;100482.44;;;12.61;100.00
20444;BME280;10381;53.730;10.010;2022-09-09T04:37:31;100493.13;;;12.69;100.00
20444;BME280;10381;53.730;10.010;2022-09-09T04:41:32;100492.97;;;12.71;100.00
20444;BME280;10381;53.730;10.010;2022-09-09T04:45:32;100495.94;;;12.68;100.00
20444;BME280;10381;53.730;10.010;2022-09-09T04:49:33;100490.81;;;12.74;100.00
20444;BME280;10381;53.730;10.010;2022-09-09T04:53:34;100501.78;;;12.71;100.00
20444;BME280;10381;53.730;10.010;2022-09-09T04:57:34;100500.78;;;12.72;100.00
20444;BME280;10381;53.730;10.010;2022-09-09T05:01:34;100499.78;;;12.73;100.00
20444;BME280;10381;53.730;10.010;2022-09-09T05:05:35;100507.31;;;12.78;100.00
20444;BME280;10381;53.730;10.010;2022-09-09T05:09:35;100503.06;;;12.67;100.00
20444;BME280;10381;53.730;10.010;2022-09-09T05:13:35;100498.13;;;12.72;100.00
20444;BME280;10381;53.730;10.010;2022-09-09T05:17:35;100500.50;;;12.57;100.00
20444;BME280;10381;53.730;10.010;2022-09-09T05:21:36;100501.38;;;12.58;100.00
20444;BME280;10381;53.730;10.010;2022-09-09T05:25:37;100509.91;;;12.44;100.00
20444;BME280;10381;53.730;10.010;2022-09-09T05:29:37;100510.81;;;12.34;100.00
20444;BME280;10381;53.730;10.010;2022-09-09T05:33:39;100516.13;;;12.34;100.00
20444;BME280;10381;53.730;10.010;2022-09-09T05:37:43;100517.78;;;12.35;100.00
20444;BME280;10381;53.730;10.010;2022-09-09T05:41:44;100512.47;;;12.35;100.00
20444;BME280;10381;53.730;10.010;2022-09-09T05:45:45;100515.31;;;12.34;100.00
20444;BME280;10381;53.730;10.010;2022-09-09T05:49:47;100516.59;;;12.30;100.00
20444;BME280;10381;53.730;10.010;2022-09-09T05:53:48;100514.91;;;12.29;100.00
20444;BME280;10381;53.730;10.010;2022-09-09T05:57:49;100523.63;;;12.39;100.00
20444;BME280;10381;53.730;10.010;2022-09-09T06:01:49;100519.88;;;12.50;100.00
20444;BME280;10381;53.730;10.010;2022-09-09T06:05:57;100535.00;;;12.49;100.00
20444;BME280;10381;53.730;10.010;2022-09-09T06:09:57;100540.91;;;12.61;100.00
20444;BME280;10381;53.730;10.010;2022-09-09T06:13:59;100541.31;;;12.74;100.00
20444;BME280;10381;53.730;10.010;2022-09-09T06:18:00;100546.81;;;12.99;100.00
20444;BME280;10381;53.730;10.010;2022-09-09T06:22:00;100550.13;;;13.01;100.00
20444;BME280;10381;53.730;10.010;2022-09-09T06:26:10;100554.94;;;13.24;100.00
20444;BME280;10381;53.730;10.010;2022-09-09T06:30:11;100566.53;;;13.22;100.00
20444;BME280;10381;53.730;10.010;2022-09-09T06:34:11;100558.69;;;13.13;100.00
20444;BME280;10381;53.730;10.010;2022-09-09T06:38:11;100565.56;;;13.24;100.00
20444;BME280;10381;53.730;10.010;2022-09-09T06:42:12;100557.09;;;13.54;100.00
20444;BME280;10381;53.730;10.010;2022-09-09T06:46:16;100560.72;;;13.45;100.00
20444;BME280;10381;53.730;10.010;2022-09-09T06:50:16;100559.34;;;13.92;100.00
20444;BME280;10381;53.730;10.010;2022-09-09T06:54:16;100559.44;;;13.66;100.00
20444;BME280;10381;53.730;10.010;2022-09-09T06:58:17;100555.38;;;13.96;100.00
20444;BME280;10381;53.730;10.010;2022-09-09T07:02:17;100544.88;;;13.86;100.00
20444;BME280;10381;53.730;10.010;2022-09-09T07:06:22;100558.88;;;14.04;100.00
20444;BME280;10381;53.730;10.010;2022-09-09T07:10:26;100557.56;;;14.00;100.00
20444;BME280;10381;53.730;10.010;2022-09-09T07:14:26;100566.28;;;14.76;100.00
20444;BME280;10381;53.730;10.010;2022-09-09T07:18:27;100558.94;;;14.78;100.00
20444;BME280;10381;53.730;10.010;2022-09-09T07:22:27;100566.00;;;15.27;100.00
20444;BME280;10381;53.730;10.010;2022-09-09T07:26:30;100562.19;;;15.21;100.00
20444;BME280;10381;53.730;10.010;2022-09-09T07:30:30;100555.53;;;15.17;100.00
20444;BME280;10381;53.730;10.010;2022-09-09T07:34:30;100564.72;;;16.25;100.00
20444;BME280;10381;53.730;10.010;2022-09-09T07:38:31;100559.47;;;16.08;100.00
20444;BME280;10381;53.730;10.010;2022-09-09T07:42:31;100555.03;;;16.47;100.00
20444;BME280;10381;53.730;10.010;2022-09-09T07:46:32;100557.06;;;16.22;100.00
20444;BME280;10381;53.730;10.010;2022-09-09T07:50:32;100585.59;;;15.98;100.00
20444;BME280;10381;53.730;10.010;2022-09-09T07:54:33;100612.75;;;15.79;100.00
20444;BME280;10381;53.730;10.010;2022-09-09T07:58:33;100639.59;;;15.85;100.00
20444;BME280;10381;53.730;10.010;2022-09-09T08:02:33;100642.13;;;15.79;100.00
20444;BME280;10381;53.730;10.010;2022-09-09T08:06:39;100618.50;;;15.98;100.00
20444;BME280;10381;53.730;10.010;2022-09-09T08:10:39;100608.28;;;15.71;100.00
20444;BME280;10381;53.730;10.010;2022-09-09T08:14:40;100609.78;;;16.28;100.00
20444;BME280;10381;53.730;10.010;2022-09-09T08:18:40;100601.44;;;16.31;100.00
20444;BME280;10381;53.730;10.010;2022-09-09T08:22:41;100604.81;;;16.25;100.00
20444;BME280;10381;53.730;10.010;2022-09-09T08:26:46;100617.13;;;16.03;100.00
20444;BME280;10381;53.730;10.010;2022-09-09T08:30:47;100624.66;;;15.99;100.00
20444;BME280;10381;53.730;10.010;2022-09-09T08:34:48;100625.44;;;15.68;100.00
20444;BME280;10381;53.730;10.010;2022-09-09T08:38:51;100618.03;;;16.18;100.00
20444;BME280;10381;53.730;10.010;2022-09-09T08:42:56;100611.56;;;16.35;100.00
20444;BME280;10381;53.730;10.010;2022-09-09T08:51:28;100606.59;;;16.32;100.00
20444;BME280;10381;53.730;10.010;2022-09-09T08:55:42;100605.56;;;16.10;100.00
20444;BME280;10381;53.730;10.010;2022-09-09T08:59:45;100607.34;;;16.18;100.00
20444;BME280;10381;53.730;10.010;2022-09-09T09:08:12;100613.38;;;16.89;100.00
20444;BME280;10381;53.730;10.010;2022-09-09T09:12:19;100606.28;;;16.96;100.00
20444;BME280;10381;53.730;10.010;2022-09-09T09:16:33;100596.41;;;18.44;100.00
20444;BME280;10381;53.730;10.010;2022-09-09T09:20:50;100571.28;;;18.45;100.00
20444;BME280;10381;53.730;10.010;2022-09-09T09:25:21;100559.91;;;18.43;100.00
20444;BME280;10381;53.730;10.010;2022-09-09T09:29:24;100553.69;;;18.92;100.00
20444;BME280;10381;53.730;10.010;2022-09-09T09:33:35;100547.31;;;18.93;100.00
20444;BME280;10381;53.730;10.010;2022-09-09T09:37:40;100549.03;;;18.29;100.00
20444;BME280;10381;53.730;10.010;2022-09-09T09:41:42;100556.72;;;17.45;100.00
20444;BME280;10381;53.730;10.010;2022-09-09T09:45:44;100564.34;;;17.93;100.00
20444;BME280;10381;53.730;10.010;2022-09-09T09:49:53;100551.78;;;18.15;100.00
20444;BME280;10381;53.730;10.010;2022-09-09T09:58:06;100557.03;;;17.86;100.00
20444;BME280;10381;53.730;10.010;2022-09-09T10:02:13;100558.06;;;17.85;100.00
20444;BME280;10381;53.730;10.010;2022-09-09T10:06:14;100566.31;;;17.54;100.00
20444;BME280;10381;53.730;10.010;2022-09-09T10:10:30;100571.28;;;17.87;100.00
20444;BME280;10381;53.730;10.010;2022-09-09T10:14:57;100568.91;;;18.35;100.00
20444;BME280;10381;53.730;10.010;2022-09-09T10:19:42;100562.22;;;19.02;100.00
20444;BME280;10381;53.730;10.010;2022-09-09T10:28:30;100547.75;;;18.97;100.00
20444;BME280;10381;53.730;10.010;2022-09-09T10:36:46;100544.94;;;19.46;100.00
20444;BME280;10381;53.730;10.010;2022-09-09T10:41:03;100540.38;;;19.47;100.00
20444;BME280;10381;53.730;10.010;2022-09-09T10:45:23;100543.50;;;19.50;100.00
20444;BME280;10381;53.730;10.010;2022-09-09T10:49:47;100531.47;;;19.40;100.00
20444;BME280;10381;53.730;10.010;2022-09-09T10:54:11;100524.56;;;19.24;100.00
20444;BME280;10381;53.730;10.010;2022-09-09T10:58:22;100531.56;;;19.66;100.00
20444;BME280;10381;53.730;10.010;2022-09-09T11:02:30;100531.81;;;19.71;100.00
20444;BME280;10381;53.730;10.010;2022-09-09T11:06:37;100529.50;;;20.63;100.00
20444;BME280;10381;53.730;10.010;2022-09-09T11:10:44;100532.38;;;20.88;100.00
20444;BME280;10381;53.730;10.010;2022-09-09T11:14:51;100541.34;;;21.47;100.00
20444;BME280;10381;53.730;10.010;2022-09-09T11:19:14;100527.75;;;19.82;100.00
20444;BME280;10381;53.730;10.010;2022-09-09T11:23:27;100529.03;;;20.13;100.00
20444;BME280;10381;53.730;10.010;2022-09-09T11:32:04;100524.09;;;20.36;100.00
20444;BME280;10381;53.730;10.010;2022-09-09T11:36:39;100535.06;;;20.75;100.00
20444;BME280;10381;53.730;10.010;2022-09-09T11:40:44;100536.53;;;20.77;100.00
20444;BME280;10381;53.730;10.010;2022-09-09T11:44:44;100542.84;;;19.90;100.00
20444;BME280;10381;53.730;10.010;2022-09-09T11:48:57;100539.38;;;20.22;100.00
20444;BME280;10381;53.730;10.010;2022-09-09T11:53:21;100536.22;;;19.92;100.00
20444;BME280;10381;53.730;10.010;2022-09-09T11:57:26;100535.44;;;20.25;100.00
20444;BME280;10381;53.730;10.010;2022-09-09T12:01:36;100539.09;;;21.31;100.00
20444;BME280;10381;53.730;10.010;2022-09-09T12:05:42;100532.88;;;21.30;100.00
20444;BME280;10381;53.730;10.010;2022-09-09T12:09:50;100530.00;;;21.77;100.00
20444;BME280;10381;53.730;10.010;2022-09-09T12:13:54;100538.97;;;22.09;100.00
20444;BME280;10381;53.730;10.010;2022-09-09T12:17:57;100524.13;;;21.93;100.00
20444;BME280;10381;53.730;10.010;2022-09-09T12:31:00;100527.41;;;20.85;100.00
20444;BME280;10381;53.730;10.010;2022-09-09T12:35:03;100531.94;;;20.98;100.00
20444;BME280;10381;53.730;10.010;2022-09-09T12:39:24;100534.47;;;20.66;100.00
20444;BME280;10381;53.730;10.010;2022-09-09T12:43:29;100533.59;;;20.19;100.00
20444;BME280;10381;53.730;10.010;2022-09-09T12:47:41;100528.22;;;20.39;100.00
20444;BME280;10381;53.730;10.010;2022-09-09T12:51:45;100534.44;;;20.33;100.00
20444;BME280;10381;53.730;10.010;2022-09-09T12:55:51;100525.72;;;20.24;100.00
20444;BME280;10381;53.730;10.010;2022-09-09T13:00:08;100522.00;;;20.38;100.00
20444;BME280;10381;53.730;10.010;2022-09-09T13:04:21;100524.88;;;20.97;100.00
20444;BME280;10381;53.730;10.010;2022-09-09T13:08:22;100533.97;;;21.09;100.00
20444;BME280;10381;53.730;10.010;2022-09-09T13:12:22;100536.28;;;21.05;100.00
20444;BME280;10381;53.730;10.010;2022-09-09T13:16:28;100529.88;;;20.80;100.00
20444;BME280;10381;53.730;10.010;2022-09-09T13:20:31;100521.75;;;21.13;100.00
20444;BME280;10381;53.730;10.010;2022-09-09T13:24:33;100529.06;;;20.93;100.00
20444;BME280;10381;53.730;10.010;2022-09-09T13:28:34;100521.59;;;20.41;100.00
20444;BME280;10381;53.730;10.010;2022-09-09T13:32:37;100548.50;;;19.60;100.00
20444;BME280;10381;53.730;10.010;2022-09-09T13:36:38;100552.94;;;18.98;100.00
20444;BME280;10381;53.730;10.010;2022-09-09T13:40:39;100570.81;;;18.20;100.00
20444;BME280;10381;53.730;10.010;2022-09-09T13:44:40;100620.06;;;17.38;100.00
20444;BME280;10381;53.730;10.010;2022-09-09T13:48:41;100688.91;;;16.68;100.00
20444;BME280;10381;53.730;10.010;2022-09-09T13:52:41;100729.31;;;16.50;100.00
20444;BME280;10381;53.730;10.010;2022-09-09T13:56:42;100739.13;;;16.27;100.00
20444;BME280;10381;53.730;10.010;2022-09-09T14:00:43;100753.94;;;15.98;100.00
20444;BME280;10381;53.730;10.010;2022-09-09T14:04:44;100753.16;;;15.40;100.00
20444;BME280;10381;53.730;10.010;2022-09-09T14:08:45;100739.66;;;15.42;100.00
20444;BME280;10381;53.730;10.010;2022-09-09T14:12:47;100737.31;;;15.47;100.00
20444;BME280;10381;53.730;10.010;2022-09-09T14:16:47;100736.63;;;15.53;100.00
20444;BME280;10381;53.730;10.010;2022-09-09T14:20:48;100735.13;;;15.59;100.00
20444;BME280;10381;53.730;10.010;2022-09-09T14:24:48;100733.09;;;15.61;100.00
20444;BME280;10381;53.730;10.010;2022-09-09T14:28:49;100717.09;;;15.61;100.00
20444;BME280;10381;53.730;10.010;2022-09-09T14:32:50;100722.28;;;15.54;100.00
20444;BME280;10381;53.730;10.010;2022-09-09T14:36:50;100718.25;;;15.58;100.00
20444;BME280;10381;53.730;10.010;2022-09-09T14:40:51;100711.59;;;15.46;100.00
20444;BME280;10381;53.730;10.010;2022-09-09T14:44:51;100706.78;;;15.49;100.00
20444;BME280;10381;53.730;10.010;2022-09-09T14:48:52;100707.41;;;15.60;100.00
20444;BME280;10381;53.730;10.010;2022-09-09T14:52:52;100704.75;;;15.60;100.00
20444;BME280;10381;53.730;10.010;2022-09-09T14:56:53;100699.59;;;15.50;100.00
20444;BME280;10381;53.730;10.010;2022-09-09T15:00:53;100704.72;;;15.68;100.00
20444;BME280;10381;53.730;10.010;2022-09-09T15:04:53;100705.88;;;15.82;100.00
20444;BME280;10381;53.730;10.010;2022-09-09T15:08:57;100699.97;;;16.03;100.00
20444;BME280;10381;53.730;10.010;2022-09-09T15:12:57;100700.44;;;16.06;100.00
20444;BME280;10381;53.730;10.010;2022-09-09T15:16:58;100702.34;;;15.97;100.00
20444;BME280;10381;53.730;10.010;2022-09-09T15:20:59;100701.56;;;15.81;100.00
20444;BME280;10381;53.730;10.010;2022-09-09T15:25:00;100689.00;;;15.89;100.00
20444;BME280;10381;53.730;10.010;2022-09-09T15:29:00;100699.50;;;15.91;100.00
20444;BME280;10381;53.730;10.010;2022-09-09T15:33:00;100702.81;;;16.01;100.00
20444;BME280;10381;53.730;10.010;2022-09-09T15:37:00;100701.16;;;15.92;100.00
20444;BME280;10381;53.730;10.010;2022-09-09T15:41:01;100699.47;;;16.38;100.00
20444;BME280;10381;53.730;10.010;2022-09-09T15:45:01;100689.38;;;16.17;100.00
20444;BME280;10381;53.730;10.010;2022-09-09T15:49:08;100689.22;;;16.19;100.00
20444;BME280;10381;53.730;10.010;2022-09-09T15:53:09;100677.78;;;16.56;100.00
20444;BME280;10381;53.730;10.010;2022-09-09T15:57:12;100688.50;;;17.70;100.00
20444;BME280;10381;53.730;10.010;2022-09-09T16:01:12;100658.22;;;17.55;100.00
20444;BME280;10381;53.730;10.010;2022-09-09T16:05:13;100618.38;;;18.33;100.00
20444;BME280;10381;53.730;10.010;2022-09-09T16:09:13;100614.78;;;18.68;100.00
20444;BME280;10381;53.730;10.010;2022-09-09T16:13:13;100592.72;;;18.23;100.00
20444;BME280;10381;53.730;10.010;2022-09-09T16:17:14;100596.56;;;18.36;100.00
20444;BME280;10381;53.730;10.010;2022-09-09T16:21:18;100594.84;;;17.62;100.00
20444;BME280;10381;53.730;10.010;2022-09-09T16:25:19;100616.06;;;16.89;100.00
20444;BME280;10381;53.730;10.010;2022-09-09T16:29:22;100618.44;;;16.84;100.00
20444;BME280;10381;53.730;10.010;2022-09-09T16:33:22;100611.16;;;16.70;100.00
20444;BME280;10381;53.730;10.010;2022-09-09T16:37:23;100615.69;;;16.69;100.00
20444;BME280;10381;53.730;10.010;2022-09-09T16:41:24;100611.50;;;16.67;100.00
20444;BME280;10381;53.730;10.010;2022-09-09T16:45:24;100618.16;;;16.71;100.00
20444;BME280;10381;53.730;10.010;2022-09-09T16:49:25;100623.06;;;16.67;100.00
20444;BME280;10381;53.730;10.010;2022-09-09T16:53:25;100619.97;;;16.55;100.00
20444;BME280;10381;53.730;10.010;2022-09-09T16:57:25;100636.34;;;16.52;100.00
20444;BME280;10381;53.730;10.010;2022-09-09T17:01:28;100637.09;;;16.46;100.00
20444;BME280;10381;53.730;10.010;2022-09-09T17:05:29;100642.53;;;16.30;100.00
20444;BME280;10381;53.730;10.010;2022-09-09T17:09:29;100659.97;;;16.17;100.00
20444;BME280;10381;53.730;10.010;2022-09-09T17:13:31;100661.03;;;16.08;100.00
20444;BME280;10381;53.730;10.010;2022-09-09T17:17:31;100667.75;;;15.96;100.00
20444;BME280;10381;53.730;10.010;2022-09-09T17:21:32;100664.16;;;15.81;100.00
20444;BME280;10381;53.730;10.010;2022-09-09T17:25:33;100663.81;;;15.67;100.00
20444;BME280;10381;53.730;10.010;2022-09-09T17:29:33;100672.38;;;15.46;100.00
20444;BME280;10381;53.730;10.010;2022-09-09T17:33:37;100667.28;;;15.20;100.00
20444;BME280;10381;53.730;10.010;2022-09-09T17:37:38;100671.63;;;15.05;100.00
20444;BME280;10381;53.730;10.010;2022-09-09T17:41:39;100684.28;;;14.70;100.00
20444;BME280;10381;53.730;10.010;2022-09-09T17:45:40;100678.94;;;14.54;100.00
20444;BME280;10381;53.730;10.010;2022-09-09T17:49:40;100692.78;;;14.74;100.00
20444;BME280;10381;53.730;10.010;2022-09-09T17:53:43;100705.97;;;14.75;100.00
20444;BME280;10381;53.730;10.010;2022-09-09T17:57:43;100710.44;;;14.58;100.00
20444;BME280;10381;53.730;10.010;2022-09-09T18:01:46;100724.31;;;14.27;100.00
20444;BME280;10381;53.730;10.010;2022-09-09T18:05:46;100723.50;;;13.93;100.00
20444;BME280;10381;53.730;10.010;2022-09-09T18:09:47;100735.56;;;13.79;100.00
20444;BME280;10381;53.730;10.010;2022-09-09T18:13:57;100733.94;;;13.86;100.00
20444;BME280;10381;53.730;10.010;2022-09-09T18:17:58;100742.84;;;13.69;100.00
20444;BME280;10381;53.730;10.010;2022-09-09T18:22:05;100746.56;;;13.32;100.00
20444;BME280;10381;53.730;10.010;2022-09-09T18:26:14;100753.09;;;13.37;100.00
20444;BME280;10381;53.730;10.010;2022-09-09T18:30:14;100754.84;;;13.29;100.00
20444;BME280;10381;53.730;10.010;2022-09-09T18:34:17;100760.91;;;13.21;100.00
20444;BME280;10381;53.730;10.010;2022-09-09T18:38:17;100764.72;;;13.18;100.00
20444;BME280;10381;53.730;10.010;2022-09-09T18:42:18;100760.09;;;12.85;100.00
20444;BME280;10381;53.730;10.010;2022-09-09T18:46:18;100756.63;;;12.74;100.00
20444;BME280;10381;53.730;10.010;2022-09-09T18:50:19;100747.06;;;12.82;100.00
20444;BME280;10381;53.730;10.010;2022-09-09T18:54:25;100749.00;;;12.89;100.00
20444;BME280;10381;53.730;10.010;2022-09-09T18:58:25;100738.22;;;13.09;100.00
20444;BME280;10381;53.730;10.010;2022-09-09T19:02:26;100745.41;;;13.34;100.00
20444;BME280;10381;53.730;10.010;2022-09-09T19:06:29;100747.38;;;13.50;100.00
20444;BME280;10381;53.730;10.010;2022-09-09T19:10:29;100747.72;;;13.55;100.00
20444;BME280;10381;53.730;10.010;2022-09-09T19:14:30;100751.81;;;13.68;100.00
20444;BME280;10381;53.730;10.010;2022-09-09T19:18:31;100749.72;;;13.79;100.00
20444;BME280;10381;53.730;10.010;2022-09-09T19:22:31;100758.97;;;13.93;100.00
20444;BME280;10381;53.730;10.010;2022-09-09T19:26:40;100762.09;;;13.89;100.00
20444;BME280;10381;53.730;10.010;2022-09-09T19:30:42;100760.41;;;13.88;100.00
20444;BME280;10381;53.730;10.010;2022-09-09T19:34:46;100764.22;;;13.85;100.00
20444;BME280;10381;53.730;10.010;2022-09-09T19:38:47;100765.38;;;13.82;100.00
20444;BME280;10381;53.730;10.010;2022-09-09T19:42:47;100765.84;;;13.78;100.00
20444;BME280;10381;53.730;10.010;2022-09-09T19:46:48;100766.16;;;13.75;100.00
20444;BME280;10381;53.730;10.010;2022-09-09T19:50:49;100764.78;;;13.71;100.00
20444;BME280;10381;53.730;10.010;2022-09-09T19:54:49;100771.44;;;13.67;100.00
20444;BME280;10381;53.730;10.010;2022-09-09T19:58:50;100768.88;;;13.57;100.00
20444;BME280;10381;53.730;10.010;2022-09-09T20:02:50;100764.16;;;13.51;100.00
20444;BME280;10381;53.730;10.010;2022-09-09T20:06:51;100760.44;;;13.43;100.00
20444;BME280;10381;53.730;10.010;2022-09-09T20:10:52;100771.56;;;13.39;100.00
20444;BME280;10381;53.730;10.010;2022-09-09T20:14:53;100778.81;;;13.29;100.00
20444;BME280;10381;53.730;10.010;2022-09-09T20:18:56;100784.13;;;13.29;100.00
20444;BME280;10381;53.730;10.010;2022-09-09T20:22:56;100777.78;;;13.30;100.00
20444;BME280;10381;53.730;10.010;2022-09-09T20:26:57;100767.75;;;13.24;100.00
20444;BME280;10381;53.730;10.010;2022-09-09T20:31:09;100771.56;;;13.21;100.00
20444;BME280;10381;53.730;10.010;2022-09-09T20:35:10;100775.50;;;13.17;100.00
20444;BME280;10381;53.730;10.010;2022-09-09T20:39:13;100776.72;;;13.22;100.00
20444;BME280;10381;53.730;10.010;2022-09-09T20:43:16;100787.59;;;13.29;100.00
20444;BME280;10381;53.730;10.010;2022-09-09T20:47:16;100794.16;;;13.35;100.00
20444;BME280;10381;53.730;10.010;2022-09-09T20:51:18;100799.69;;;13.41;100.00
20444;BME280;10381;53.730;10.010;2022-09-09T20:55:22;100786.09;;;13.45;100.00
20444;BME280;10381;53.730;10.010;2022-09-09T20:59:24;100781.38;;;13.38;100.00
20444;BME280;10381;53.730;10.010;2022-09-09T21:03:30;100781.97;;;13.32;100.00
20444;BME280;10381;53.730;10.010;2022-09-09T21:07:31;100774.59;;;13.26;100.00
20444;BME280;10381;53.730;10.010;2022-09-09T21:11:32;100774.00;;;13.14;100.00
20444;BME280;10381;53.730;10.010;2022-09-09T21:15:33;100776.72;;;13.22;100.00
20444;BME280;10381;53.730;10.010;2022-09-09T21:19:35;100788.66;;;13.18;100.00
20444;BME280;10381;53.730;10.010;2022-09-09T21:23:35;100792.22;;;13.09;100.00
20444;BME280;10381;53.730;10.010;2022-09-09T21:27:36;100789.25;;;13.12;100.00
20444;BME280;10381;53.730;10.010;2022-09-09T21:31:37;100793.13;;;13.00;100.00
20444;BME280;10381;53.730;10.010;2022-09-09T21:35:38;100784.53;;;12.88;100.00
20444;BME280;10381;53.730;10.010;2022-09-09T21:39:39;100782.31;;;12.84;100.00